sensor_id;sensor_type;location;lat;lon;timestamp;P1;durP1;ratioP1;P2;durP2;ratioP2
8572;SDS011;4324;42.012;24.872;2023-08-30T00:01:30;28.63;;;25.87;;
8572;SDS011;4324;42.012;24.872;2023-08-30T00:03:57;30.93;;;27.90;;
8572;SDS011;4324;42.012;24.872;2023-08-30T00:06:24;29.23;;;26.33;;
8572;SDS011;4324;42.012;24.872;2023-08-30T00:08:52;26.97;;;24.37;;
8572;SDS011;4324;42.012;24.872;2023-08-30T00:11:19;39.73;;;35.93;;
8572;SDS011;4324;42.012;24.872;2023-08-30T00:13:46;35.93;;;32.20;;
8572;SDS011;4324;42.012;24.872;2023-08-30T00:16:13;36.40;;;33.00;;
8572;SDS011;4324;42.012;24.872;2023-08-30T00:18:42;34.57;;;31.17;;
8572;SDS011;4324;42.012;24.872;2023-08-30T00:21:09;35.00;;;31.47;;
8572;SDS011;4324;42.012;24.872;2023-08-30T00:23:36;51.23;;;46.00;;
8572;SDS011;4324;42.012;24.872;2023-08-30T00:26:04;64.23;;;57.93;;
8572;SDS011;4324;42.012;24.872;2023-08-30T00:28:31;69.83;;;62.30;;
8572;SDS011;4324;42.012;24.872;2023-08-30T00:30:58;80.37;;;71.80;;
8572;SDS011;4324;42.012;24.872;2023-08-30T00:33:24;76.07;;;68.03;;
8572;SDS011;4324;42.012;24.872;2023-08-30T00:35:55;72.53;;;64.93;;
8572;SDS011;4324;42.012;24.872;2023-08-30T00:38:22;92.57;;;83.27;;
8572;SDS011;4324;42.012;24.872;2023-08-30T00:40:49;97.40;;;87.50;;
8572;SDS011;4324;42.012;24.872;2023-08-30T00:43:17;104.30;;;93.73;;
8572;SDS011;4324;42.012;24.872;2023-08-30T00:45:44;103.97;;;93.03;;
8572;SDS011;4324;42.012;24.872;2023-08-30T00:48:11;113.20;;;101.27;;
8572;SDS011;4324;42.012;24.872;2023-08-30T00:50:38;110.17;;;98.77;;
8572;SDS011;4324;42.012;24.872;2023-08-30T00:53:06;106.77;;;95.97;;
8572;SDS011;4324;42.012;24.872;2023-08-30T00:55:33;106.10;;;95.33;;
8572;SDS011;4324;42.012;24.872;2023-08-30T00:58:01;105.27;;;94.37;;
8572;SDS011;4324;42.012;24.872;2023-08-30T01:00:29;80.47;;;72.30;;
8572;SDS011;4324;42.012;24.872;2023-08-30T01:02:57;62.87;;;56.57;;
8572;SDS011;4324;42.012;24.872;2023-08-30T01:05:24;68.97;;;61.87;;
8572;SDS011;4324;42.012;24.872;2023-08-30T01:07:51;48.97;;;44.20;;
8572;SDS011;4324;42.012;24.872;2023-08-30T01:10:18;54.90;;;49.23;;
8572;SDS011;4324;42.012;24.872;2023-08-30T01:12:56;53.47;;;48.10;;
8572;SDS011;4324;42.012;24.872;2023-08-30T01:15:33;75.23;;;67.37;;
8572;SDS011;4324;42.012;24.872;2023-08-30T01:18:01;54.33;;;48.77;;
8572;SDS011;4324;42.012;24.872;2023-08-30T01:20:32;70.17;;;63.07;;
8572;SDS011;4324;42.012;24.872;2023-08-30T01:23:05;79.60;;;71.57;;
8572;SDS011;4324;42.012;24.872;2023-08-30T01:25:38;83.67;;;74.73;;
8572;SDS011;4324;42.012;24.872;2023-08-30T01:28:13;85.37;;;76.60;;
8572;SDS011;4324;42.012;24.872;2023-08-30T01:30:42;90.27;;;80.70;;
8572;SDS011;4324;42.012;24.872;2023-08-30T01:33:11;103.20;;;84.30;;
8572;SDS011;4324;42.012;24.872;2023-08-30T01:35:40;83.50;;;74.80;;
8572;SDS011;4324;42.012;24.872;2023-08-30T01:38:08;73.57;;;65.93;;
8572;SDS011;4324;42.012;24.872;2023-08-30T01:40:36;62.87;;;56.63;;
8572;SDS011;4324;42.012;24.872;2023-08-30T01:43:05;62.70;;;55.77;;
8572;SDS011;4324;42.012;24.872;2023-08-30T01:45:35;59.47;;;53.03;;
8572;SDS011;4324;42.012;24.872;2023-08-30T01:48:05;59.93;;;53.80;;
8572;SDS011;4324;42.012;24.872;2023-08-30T01:50:35;58.90;;;53.20;;
8572;SDS011;4324;42.012;24.872;2023-08-30T01:53:04;64.70;;;58.10;;
8572;SDS011;4324;42.012;24.872;2023-08-30T01:55:31;61.63;;;55.13;;
8572;SDS011;4324;42.012;24.872;2023-08-30T01:57:59;70.40;;;62.93;;
8572;SDS011;4324;42.012;24.872;2023-08-30T02:00:25;78.40;;;70.50;;
8572;SDS011;4324;42.012;24.872;2023-08-30T02:02:54;77.10;;;69.13;;
8572;SDS011;4324;42.012;24.872;2023-08-30T02:05:20;74.07;;;66.30;;
8572;SDS011;4324;42.012;24.872;2023-08-30T02:07:49;81.50;;;72.90;;
8572;SDS011;4324;42.012;24.872;2023-08-30T02:10:21;99.77;;;89.43;;
8572;SDS011;4324;42.012;24.872;2023-08-30T02:12:52;110.80;;;99.07;;
8572;SDS011;4324;42.012;24.872;2023-08-30T02:15:20;116.17;;;104.17;;
8572;SDS011;4324;42.012;24.872;2023-08-30T02:17:50;115.03;;;103.20;;
8572;SDS011;4324;42.012;24.872;2023-08-30T02:20:23;114.07;;;102.13;;
8572;SDS011;4324;42.012;24.872;2023-08-30T02:22:51;107.00;;;96.07;;
8572;SDS011;4324;42.012;24.872;2023-08-30T02:25:18;100.57;;;90.40;;
8572;SDS011;4324;42.012;24.872;2023-08-30T02:27:49;94.63;;;84.57;;
8572;SDS011;4324;42.012;24.872;2023-08-30T02:30:16;80.70;;;72.60;;
8572;SDS011;4324;42.012;24.872;2023-08-30T02:32:42;88.67;;;79.47;;
8572;SDS011;4324;42.012;24.872;2023-08-30T02:35:09;89.33;;;80.33;;
8572;SDS011;4324;42.012;24.872;2023-08-30T02:37:37;93.70;;;84.13;;
8572;SDS011;4324;42.012;24.872;2023-08-30T02:40:06;93.27;;;83.80;;
8572;SDS011;4324;42.012;24.872;2023-08-30T02:42:33;88.67;;;79.33;;
8572;SDS011;4324;42.012;24.872;2023-08-30T02:45:00;100.80;;;90.57;;
8572;SDS011;4324;42.012;24.872;2023-08-30T02:47:27;95.37;;;85.50;;
8572;SDS011;4324;42.012;24.872;2023-08-30T02:49:53;95.80;;;85.80;;
8572;SDS011;4324;42.012;24.872;2023-08-30T02:52:20;102.20;;;91.57;;
8572;SDS011;4324;42.012;24.872;2023-08-30T02:54:48;78.50;;;70.80;;
8572;SDS011;4324;42.012;24.872;2023-08-30T02:57:14;48.30;;;43.30;;
8572;SDS011;4324;42.012;24.872;2023-08-30T02:59:41;46.27;;;41.70;;
8572;SDS011;4324;42.012;24.872;2023-08-30T03:02:08;60.13;;;54.13;;
8572;SDS011;4324;42.012;24.872;2023-08-30T03:04:35;91.30;;;81.93;;
8572;SDS011;4324;42.012;24.872;2023-08-30T03:07:03;94.67;;;85.40;;
8572;SDS011;4324;42.012;24.872;2023-08-30T03:09:30;97.50;;;87.20;;
8572;SDS011;4324;42.012;24.872;2023-08-30T03:11:58;102.00;;;91.00;;
8572;SDS011;4324;42.012;24.872;2023-08-30T03:14:25;99.23;;;89.50;;
8572;SDS011;4324;42.012;24.872;2023-08-30T03:16:52;99.30;;;89.47;;
8572;SDS011;4324;42.012;24.872;2023-08-30T03:19:19;101.63;;;91.00;;
8572;SDS011;4324;42.012;24.872;2023-08-30T03:21:45;102.67;;;92.53;;
8572;SDS011;4324;42.012;24.872;2023-08-30T03:24:12;100.90;;;90.50;;
8572;SDS011;4324;42.012;24.872;2023-08-30T03:26:42;100.63;;;90.33;;
8572;SDS011;4324;42.012;24.872;2023-08-30T03:29:10;97.77;;;87.30;;
8572;SDS011;4324;42.012;24.872;2023-08-30T03:31:37;93.03;;;83.70;;
8572;SDS011;4324;42.012;24.872;2023-08-30T03:34:04;87.63;;;78.83;;
8572;SDS011;4324;42.012;24.872;2023-08-30T03:36:31;84.97;;;76.07;;
8572;SDS011;4324;42.012;24.872;2023-08-30T03:38:58;82.93;;;74.20;;
8572;SDS011;4324;42.012;24.872;2023-08-30T03:41:24;75.50;;;67.87;;
8572;SDS011;4324;42.012;24.872;2023-08-30T03:43:54;76.33;;;68.77;;
8572;SDS011;4324;42.012;24.872;2023-08-30T03:46:22;77.27;;;69.40;;
8572;SDS011;4324;42.012;24.872;2023-08-30T03:48:49;72.17;;;64.83;;
8572;SDS011;4324;42.012;24.872;2023-08-30T03:51:17;73.53;;;66.13;;
8572;SDS011;4324;42.012;24.872;2023-08-30T03:53:44;74.37;;;66.87;;
8572;SDS011;4324;42.012;24.872;2023-08-30T03:56:11;79.73;;;71.60;;
8572;SDS011;4324;42.012;24.872;2023-08-30T03:58:37;74.70;;;67.00;;
8572;SDS011;4324;42.012;24.872;2023-08-30T04:01:04;71.90;;;64.67;;
8572;SDS011;4324;42.012;24.872;2023-08-30T04:03:33;70.47;;;63.17;;
8572;SDS011;4324;42.012;24.872;2023-08-30T04:06:00;67.40;;;60.80;;
8572;SDS011;4324;42.012;24.872;2023-08-30T04:08:27;76.30;;;68.63;;
8572;SDS011;4324;42.012;24.872;2023-08-30T04:10:54;82.53;;;74.30;;
8572;SDS011;4324;42.012;24.872;2023-08-30T04:13:21;83.23;;;74.77;;
8572;SDS011;4324;42.012;24.872;2023-08-30T04:15:48;87.03;;;78.30;;
8572;SDS011;4324;42.012;24.872;2023-08-30T04:18:15;91.10;;;82.07;;
8572;SDS011;4324;42.012;24.872;2023-08-30T04:20:46;89.90;;;80.70;;
8572;SDS011;4324;42.012;24.872;2023-08-30T04:23:13;89.53;;;80.40;;
8572;SDS011;4324;42.012;24.872;2023-08-30T04:25:40;90.13;;;81.10;;
8572;SDS011;4324;42.012;24.872;2023-08-30T04:28:07;88.03;;;79.23;;
8572;SDS011;4324;42.012;24.872;2023-08-30T04:30:35;80.93;;;72.73;;
8572;SDS011;4324;42.012;24.872;2023-08-30T04:33:02;85.10;;;76.67;;
8572;SDS011;4324;42.012;24.872;2023-08-30T04:35:30;89.77;;;80.60;;
8572;SDS011;4324;42.012;24.872;2023-08-30T04:37:59;93.30;;;84.30;;
8572;SDS011;4324;42.012;24.872;2023-08-30T04:40:27;99.93;;;89.90;;
8572;SDS011;4324;42.012;24.872;2023-08-30T04:42:55;98.83;;;89.10;;
8572;SDS011;4324;42.012;24.872;2023-08-30T04:45:22;98.57;;;88.57;;
8572;SDS011;4324;42.012;24.872;2023-08-30T04:47:48;105.27;;;94.80;;
8572;SDS011;4324;42.012;24.872;2023-08-30T04:50:15;104.47;;;94.17;;
8572;SDS011;4324;42.012;24.872;2023-08-30T04:52:43;93.97;;;84.93;;
8572;SDS011;4324;42.012;24.872;2023-08-30T04:55:11;86.50;;;77.57;;
8572;SDS011;4324;42.012;24.872;2023-08-30T04:57:38;86.27;;;77.20;;
8572;SDS011;4324;42.012;24.872;2023-08-30T05:00:10;90.30;;;81.13;;
8572;SDS011;4324;42.012;24.872;2023-08-30T05:02:37;112.10;;;100.10;;
8572;SDS011;4324;42.012;24.872;2023-08-30T05:05:05;116.83;;;104.60;;
8572;SDS011;4324;42.012;24.872;2023-08-30T05:07:32;111.67;;;100.50;;
8572;SDS011;4324;42.012;24.872;2023-08-30T05:09:59;121.47;;;109.27;;
8572;SDS011;4324;42.012;24.872;2023-08-30T05:12:27;132.90;;;119.77;;
8572;SDS011;4324;42.012;24.872;2023-08-30T05:14:54;140.20;;;125.73;;
8572;SDS011;4324;42.012;24.872;2023-08-30T05:17:21;142.97;;;129.03;;
8572;SDS011;4324;42.012;24.872;2023-08-30T05:19:48;139.90;;;126.30;;
8572;SDS011;4324;42.012;24.872;2023-08-30T05:22:15;146.23;;;131.57;;
8572;SDS011;4324;42.012;24.872;2023-08-30T05:24:42;149.13;;;134.20;;
8572;SDS011;4324;42.012;24.872;2023-08-30T05:27:09;161.43;;;145.63;;
8572;SDS011;4324;42.012;24.872;2023-08-30T05:29:38;166.07;;;149.30;;
8572;SDS011;4324;42.012;24.872;2023-08-30T05:32:05;168.00;;;150.63;;
8572;SDS011;4324;42.012;24.872;2023-08-30T05:34:32;170.20;;;153.20;;
8572;SDS011;4324;42.012;24.872;2023-08-30T05:36:58;170.20;;;152.80;;
8572;SDS011;4324;42.012;24.872;2023-08-30T05:39:25;174.20;;;155.90;;
8572;SDS011;4324;42.012;24.872;2023-08-30T05:41:52;160.07;;;143.67;;
8572;SDS011;4324;42.012;24.872;2023-08-30T05:44:19;126.93;;;114.10;;
8572;SDS011;4324;42.012;24.872;2023-08-30T05:46:47;124.73;;;112.37;;
8572;SDS011;4324;42.012;24.872;2023-08-30T05:49:14;93.07;;;83.83;;
8572;SDS011;4324;42.012;24.872;2023-08-30T05:51:41;76.87;;;69.13;;
8572;SDS011;4324;42.012;24.872;2023-08-30T05:54:07;43.43;;;39.23;;
8572;SDS011;4324;42.012;24.872;2023-08-30T05:56:34;19.57;;;15.67;;
8572;SDS011;4324;42.012;24.872;2023-08-30T05:59:01;14.90;;;13.30;;
8572;SDS011;4324;42.012;24.872;2023-08-30T06:01:28;14.27;;;12.40;;
8572;SDS011;4324;42.012;24.872;2023-08-30T06:03:56;14.77;;;12.67;;
8572;SDS011;4324;42.012;24.872;2023-08-30T06:06:23;16.37;;;14.70;;
8572;SDS011;4324;42.012;24.872;2023-08-30T06:08:52;13.63;;;12.23;;
8572;SDS011;4324;42.012;24.872;2023-08-30T06:11:19;13.13;;;11.83;;
8572;SDS011;4324;42.012;24.872;2023-08-30T06:13:46;15.30;;;13.10;;
8572;SDS011;4324;42.012;24.872;2023-08-30T06:16:12;16.27;;;12.83;;
8572;SDS011;4324;42.012;24.872;2023-08-30T06:18:39;13.33;;;12.13;;
8572;SDS011;4324;42.012;24.872;2023-08-30T06:21:15;14.90;;;13.33;;
8572;SDS011;4324;42.012;24.872;2023-08-30T06:23:41;17.37;;;14.80;;
8572;SDS011;4324;42.012;24.872;2023-08-30T06:26:08;15.80;;;13.23;;
8572;SDS011;4324;42.012;24.872;2023-08-30T06:28:35;14.70;;;13.17;;
8572;SDS011;4324;42.012;24.872;2023-08-30T06:31:02;16.10;;;14.50;;
8572;SDS011;4324;42.012;24.872;2023-08-30T06:33:28;15.13;;;13.47;;
8572;SDS011;4324;42.012;24.872;2023-08-30T06:35:57;15.57;;;14.07;;
8572;SDS011;4324;42.012;24.872;2023-08-30T06:38:27;15.67;;;14.07;;
8572;SDS011;4324;42.012;24.872;2023-08-30T06:40:54;14.83;;;13.37;;
8572;SDS011;4324;42.012;24.872;2023-08-30T06:43:24;15.63;;;14.03;;
8572;SDS011;4324;42.012;24.872;2023-08-30T06:45:51;16.13;;;14.57;;
8572;SDS011;4324;42.012;24.872;2023-08-30T06:48:18;17.90;;;16.10;;
8572;SDS011;4324;42.012;24.872;2023-08-30T06:50:45;16.57;;;14.93;;
8572;SDS011;4324;42.012;24.872;2023-08-30T06:53:11;15.43;;;13.83;;
8572;SDS011;4324;42.012;24.872;2023-08-30T06:55:40;15.33;;;13.83;;
8572;SDS011;4324;42.012;24.872;2023-08-30T06:58:06;21.73;;;16.63;;
8572;SDS011;4324;42.012;24.872;2023-08-30T07:00:33;18.73;;;16.70;;
8572;SDS011;4324;42.012;24.872;2023-08-30T07:03:00;20.20;;;17.30;;
8572;SDS011;4324;42.012;24.872;2023-08-30T07:05:27;18.40;;;16.60;;
8572;SDS011;4324;42.012;24.872;2023-08-30T07:07:54;22.07;;;20.07;;
8572;SDS011;4324;42.012;24.872;2023-08-30T07:10:21;17.97;;;15.17;;
8572;SDS011;4324;42.012;24.872;2023-08-30T07:12:50;17.87;;;16.07;;
8572;SDS011;4324;42.012;24.872;2023-08-30T07:15:17;16.37;;;14.87;;
8572;SDS011;4324;42.012;24.872;2023-08-30T07:17:44;15.00;;;13.50;;
8572;SDS011;4324;42.012;24.872;2023-08-30T07:20:11;16.67;;;15.27;;
8572;SDS011;4324;42.012;24.872;2023-08-30T07:22:38;18.63;;;13.70;;
8572;SDS011;4324;42.012;24.872;2023-08-30T07:25:05;15.53;;;14.13;;
8572;SDS011;4324;42.012;24.872;2023-08-30T07:27:33;15.33;;;14.03;;
8572;SDS011;4324;42.012;24.872;2023-08-30T07:30:02;17.80;;;16.20;;
8572;SDS011;4324;42.012;24.872;2023-08-30T07:32:29;18.47;;;16.57;;
8572;SDS011;4324;42.012;24.872;2023-08-30T07:34:56;16.77;;;15.07;;
8572;SDS011;4324;42.012;24.872;2023-08-30T07:37:23;19.20;;;16.43;;
8572;SDS011;4324;42.012;24.872;2023-08-30T07:39:51;23.73;;;15.40;;
8572;SDS011;4324;42.012;24.872;2023-08-30T07:42:18;16.47;;;14.87;;
8572;SDS011;4324;42.012;24.872;2023-08-30T07:44:45;15.77;;;14.47;;
8572;SDS011;4324;42.012;24.872;2023-08-30T07:47:13;15.20;;;13.63;;
8572;SDS011;4324;42.012;24.872;2023-08-30T07:49:40;15.90;;;14.40;;
8572;SDS011;4324;42.012;24.872;2023-08-30T07:52:07;18.13;;;15.00;;
8572;SDS011;4324;42.012;24.872;2023-08-30T07:54:36;16.53;;;14.83;;
8572;SDS011;4324;42.012;24.872;2023-08-30T07:57:03;18.23;;;14.93;;
8572;SDS011;4324;42.012;24.872;2023-08-30T07:59:32;17.17;;;15.23;;
8572;SDS011;4324;42.012;24.872;2023-08-30T08:01:59;17.27;;;15.43;;
8572;SDS011;4324;42.012;24.872;2023-08-30T08:04:27;19.50;;;16.97;;
8572;SDS011;4324;42.012;24.872;2023-08-30T08:06:54;21.30;;;17.13;;
8572;SDS011;4324;42.012;24.872;2023-08-30T08:09:21;20.43;;;18.33;;
8572;SDS011;4324;42.012;24.872;2023-08-30T08:11:48;19.40;;;17.57;;
8572;SDS011;4324;42.012;24.872;2023-08-30T08:14:15;20.07;;;17.93;;
8572;SDS011;4324;42.012;24.872;2023-08-30T08:16:42;19.67;;;17.90;;
8572;SDS011;4324;42.012;24.872;2023-08-30T08:19:11;19.97;;;18.00;;
8572;SDS011;4324;42.012;24.872;2023-08-30T08:21:41;21.00;;;19.13;;
8572;SDS011;4324;42.012;24.872;2023-08-30T08:24:08;19.63;;;17.53;;
8572;SDS011;4324;42.012;24.872;2023-08-30T08:26:35;17.33;;;15.67;;
8572;SDS011;4324;42.012;24.872;2023-08-30T08:29:02;15.07;;;13.57;;
8572;SDS011;4324;42.012;24.872;2023-08-30T08:31:29;16.17;;;14.77;;
8572;SDS011;4324;42.012;24.872;2023-08-30T08:34:06;16.80;;;15.17;;
8572;SDS011;4324;42.012;24.872;2023-08-30T08:36:35;17.80;;;15.00;;
8572;SDS011;4324;42.012;24.872;2023-08-30T08:39:06;17.97;;;16.40;;
8572;SDS011;4324;42.012;24.872;2023-08-30T08:41:38;17.57;;;15.70;;
8572;SDS011;4324;42.012;24.872;2023-08-30T08:44:06;14.87;;;13.40;;
8572;SDS011;4324;42.012;24.872;2023-08-30T08:46:35;16.27;;;14.67;;
8572;SDS011;4324;42.012;24.872;2023-08-30T08:49:05;17.17;;;15.70;;
8572;SDS011;4324;42.012;24.872;2023-08-30T08:51:36;15.70;;;14.07;;
8572;SDS011;4324;42.012;24.872;2023-08-30T08:54:03;17.60;;;13.40;;
8572;SDS011;4324;42.012;24.872;2023-08-30T08:56:34;15.83;;;14.37;;
8572;SDS011;4324;42.012;24.872;2023-08-30T08:59:01;14.67;;;13.23;;
8572;SDS011;4324;42.012;24.872;2023-08-30T09:01:28;14.57;;;13.17;;
8572;SDS011;4324;42.012;24.872;2023-08-30T09:03:56;14.00;;;12.80;;
8572;SDS011;4324;42.012;24.872;2023-08-30T09:06:24;19.87;;;17.83;;
8572;SDS011;4324;42.012;24.872;2023-08-30T09:08:51;15.40;;;13.50;;
8572;SDS011;4324;42.012;24.872;2023-08-30T09:11:19;13.57;;;12.40;;
8572;SDS011;4324;42.012;24.872;2023-08-30T09:13:45;17.00;;;14.00;;
8572;SDS011;4324;42.012;24.872;2023-08-30T09:16:13;14.90;;;13.37;;
8572;SDS011;4324;42.012;24.872;2023-08-30T09:18:40;14.43;;;13.10;;
8572;SDS011;4324;42.012;24.872;2023-08-30T09:21:07;14.80;;;13.30;;
8572;SDS011;4324;42.012;24.872;2023-08-30T09:23:35;14.20;;;12.77;;
8572;SDS011;4324;42.012;24.872;2023-08-30T09:26:02;14.07;;;12.70;;
8572;SDS011;4324;42.012;24.872;2023-08-30T09:28:31;18.83;;;17.10;;
8572;SDS011;4324;42.012;24.872;2023-08-30T09:30:58;13.07;;;11.90;;
8572;SDS011;4324;42.012;24.872;2023-08-30T09:33:32;13.45;;;12.35;;
8572;SDS011;4324;42.012;24.872;2023-08-30T09:35:59;13.83;;;12.53;;
8572;SDS011;4324;42.012;24.872;2023-08-30T09:38:27;13.85;;;12.57;;
8572;SDS011;4324;42.012;24.872;2023-08-30T09:41:02;19.17;;;12.43;;
8572;SDS011;4324;42.012;24.872;2023-08-30T09:43:31;13.33;;;12.17;;
8572;SDS011;4324;42.012;24.872;2023-08-30T09:46:02;12.93;;;11.63;;
8572;SDS011;4324;42.012;24.872;2023-08-30T09:48:29;14.57;;;12.83;;
8572;SDS011;4324;42.012;24.872;2023-08-30T09:50:57;13.93;;;12.17;;
8572;SDS011;4324;42.012;24.872;2023-08-30T09:53:25;15.13;;;13.57;;
8572;SDS011;4324;42.012;24.872;2023-08-30T09:55:53;14.00;;;12.70;;
8572;SDS011;4324;42.012;24.872;2023-08-30T09:58:21;13.73;;;12.47;;
8572;SDS011;4324;42.012;24.872;2023-08-30T10:00:49;13.00;;;11.87;;
8572;SDS011;4324;42.012;24.872;2023-08-30T10:03:16;14.20;;;12.80;;
8572;SDS011;4324;42.012;24.872;2023-08-30T10:05:44;13.27;;;12.13;;
8572;SDS011;4324;42.012;24.872;2023-08-30T10:08:13;13.83;;;12.63;;
8572;SDS011;4324;42.012;24.872;2023-08-30T10:10:40;15.13;;;13.63;;
8572;SDS011;4324;42.012;24.872;2023-08-30T10:13:07;16.50;;;15.00;;
8572;SDS011;4324;42.012;24.872;2023-08-30T10:15:36;16.40;;;14.82;;
8572;SDS011;4324;42.012;24.872;2023-08-30T10:18:08;17.33;;;15.80;;
8572;SDS011;4324;42.012;24.872;2023-08-30T10:20:37;17.75;;;16.17;;
8572;SDS011;4324;42.012;24.872;2023-08-30T10:23:04;16.63;;;15.27;;
8572;SDS011;4324;42.012;24.872;2023-08-30T10:25:34;18.30;;;16.80;;
8572;SDS011;4324;42.012;24.872;2023-08-30T10:28:01;17.57;;;15.83;;
8572;SDS011;4324;42.012;24.872;2023-08-30T10:30:29;16.25;;;14.50;;
8572;SDS011;4324;42.012;24.872;2023-08-30T10:32:56;14.82;;;13.30;;
8572;SDS011;4324;42.012;24.872;2023-08-30T10:35:25;15.40;;;14.00;;
8572;SDS011;4324;42.012;24.872;2023-08-30T10:37:55;15.02;;;13.70;;
8572;SDS011;4324;42.012;24.872;2023-08-30T10:40:23;15.68;;;14.15;;
8572;SDS011;4324;42.012;24.872;2023-08-30T10:42:59;14.23;;;12.85;;
8572;SDS011;4324;42.012;24.872;2023-08-30T10:45:27;16.67;;;15.27;;
8572;SDS011;4324;42.012;24.872;2023-08-30T10:47:55;15.25;;;13.85;;
8572;SDS011;4324;42.012;24.872;2023-08-30T10:50:34;13.90;;;12.70;;
8572;SDS011;4324;42.012;24.872;2023-08-30T10:53:01;14.80;;;13.10;;
8572;SDS011;4324;42.012;24.872;2023-08-30T10:55:30;14.83;;;12.83;;
8572;SDS011;4324;42.012;24.872;2023-08-30T10:57:58;13.90;;;12.50;;
8572;SDS011;4324;42.012;24.872;2023-08-30T11:00:27;14.55;;;13.18;;
8572;SDS011;4324;42.012;24.872;2023-08-30T11:02:55;13.95;;;12.85;;
8572;SDS011;4324;42.012;24.872;2023-08-30T11:05:22;15.18;;;13.57;;
8572;SDS011;4324;42.012;24.872;2023-08-30T11:07:51;14.60;;;13.30;;
8572;SDS011;4324;42.012;24.872;2023-08-30T11:10:19;16.48;;;14.88;;
8572;SDS011;4324;42.012;24.872;2023-08-30T11:12:47;16.67;;;15.13;;
8572;SDS011;4324;42.012;24.872;2023-08-30T11:15:15;16.15;;;14.73;;
8572;SDS011;4324;42.012;24.872;2023-08-30T11:17:43;15.48;;;14.15;;
8572;SDS011;4324;42.012;24.872;2023-08-30T11:20:10;17.83;;;16.10;;
8572;SDS011;4324;42.012;24.872;2023-08-30T11:22:38;17.85;;;16.40;;
8572;SDS011;4324;42.012;24.872;2023-08-30T11:25:09;15.90;;;14.43;;
8572;SDS011;4324;42.012;24.872;2023-08-30T11:27:36;17.33;;;15.93;;
8572;SDS011;4324;42.012;24.872;2023-08-30T11:30:03;17.40;;;15.68;;
8572;SDS011;4324;42.012;24.872;2023-08-30T11:32:32;16.02;;;14.52;;
8572;SDS011;4324;42.012;24.872;2023-08-30T11:34:59;17.10;;;15.43;;
8572;SDS011;4324;42.012;24.872;2023-08-30T11:37:27;17.13;;;15.35;;
8572;SDS011;4324;42.012;24.872;2023-08-30T11:39:54;16.30;;;14.60;;
8572;SDS011;4324;42.012;24.872;2023-08-30T11:42:23;16.35;;;15.05;;
8572;SDS011;4324;42.012;24.872;2023-08-30T11:44:50;16.60;;;15.10;;
8572;SDS011;4324;42.012;24.872;2023-08-30T11:47:18;15.95;;;14.55;;
8572;SDS011;4324;42.012;24.872;2023-08-30T11:49:46;17.95;;;16.13;;
8572;SDS011;4324;42.012;24.872;2023-08-30T11:52:14;16.15;;;14.90;;
8572;SDS011;4324;42.012;24.872;2023-08-30T11:54:42;15.93;;;14.48;;
8572;SDS011;4324;42.012;24.872;2023-08-30T11:57:09;15.60;;;14.10;;
8572;SDS011;4324;42.012;24.872;2023-08-30T11:59:38;16.13;;;14.80;;
8572;SDS011;4324;42.012;24.872;2023-08-30T12:02:05;17.70;;;15.90;;
8572;SDS011;4324;42.012;24.872;2023-08-30T12:04:39;16.40;;;15.10;;
8572;SDS011;4324;42.012;24.872;2023-08-30T12:07:07;15.68;;;14.25;;
8572;SDS011;4324;42.012;24.872;2023-08-30T12:09:34;18.38;;;16.75;;
8572;SDS011;4324;42.012;24.872;2023-08-30T12:12:05;14.60;;;13.38;;
8572;SDS011;4324;42.012;24.872;2023-08-30T12:14:33;15.70;;;14.13;;
8572;SDS011;4324;42.012;24.872;2023-08-30T12:17:01;15.13;;;13.65;;
8572;SDS011;4324;42.012;24.872;2023-08-30T12:19:28;14.50;;;13.23;;
8572;SDS011;4324;42.012;24.872;2023-08-30T12:22:03;15.60;;;14.10;;
8572;SDS011;4324;42.012;24.872;2023-08-30T12:24:39;15.40;;;14.07;;
8572;SDS011;4324;42.012;24.872;2023-08-30T12:27:07;18.40;;;16.75;;
8572;SDS011;4324;42.012;24.872;2023-08-30T12:29:34;14.35;;;13.18;;
8572;SDS011;4324;42.012;24.872;2023-08-30T12:32:02;14.18;;;12.98;;
8572;SDS011;4324;42.012;24.872;2023-08-30T12:34:30;17.02;;;15.45;;
8572;SDS011;4324;42.012;24.872;2023-08-30T12:37:02;16.95;;;15.32;;
8572;SDS011;4324;42.012;24.872;2023-08-30T12:39:29;17.70;;;16.20;;
8572;SDS011;4324;42.012;24.872;2023-08-30T12:41:56;21.02;;;19.23;;
8572;SDS011;4324;42.012;24.872;2023-08-30T12:44:23;17.42;;;15.60;;
8572;SDS011;4324;42.012;24.872;2023-08-30T12:46:50;16.67;;;15.27;;
8572;SDS011;4324;42.012;24.872;2023-08-30T12:49:18;16.10;;;14.60;;
8572;SDS011;4324;42.012;24.872;2023-08-30T12:51:45;15.77;;;14.38;;
8572;SDS011;4324;42.012;24.872;2023-08-30T12:54:11;15.40;;;14.23;;
8572;SDS011;4324;42.012;24.872;2023-08-30T12:56:38;16.95;;;15.25;;
8572;SDS011;4324;42.012;24.872;2023-08-30T12:59:05;16.25;;;14.73;;
8572;SDS011;4324;42.012;24.872;2023-08-30T13:01:32;16.73;;;15.10;;
8572;SDS011;4324;42.012;24.872;2023-08-30T13:03:59;18.15;;;16.55;;
8572;SDS011;4324;42.012;24.872;2023-08-30T13:06:27;17.00;;;15.05;;
8572;SDS011;4324;42.012;24.872;2023-08-30T13:08:54;15.98;;;14.50;;
8572;SDS011;4324;42.012;24.872;2023-08-30T13:11:20;16.90;;;15.40;;
8572;SDS011;4324;42.012;24.872;2023-08-30T13:13:47;17.17;;;15.70;;
8572;SDS011;4324;42.012;24.872;2023-08-30T13:16:14;16.92;;;15.43;;
8572;SDS011;4324;42.012;24.872;2023-08-30T13:18:41;15.90;;;14.60;;
8572;SDS011;4324;42.012;24.872;2023-08-30T13:21:08;15.15;;;14.00;;
8572;SDS011;4324;42.012;24.872;2023-08-30T13:23:36;16.23;;;14.52;;
8572;SDS011;4324;42.012;24.872;2023-08-30T13:26:03;16.40;;;14.85;;
8572;SDS011;4324;42.012;24.872;2023-08-30T13:28:30;15.60;;;14.30;;
8572;SDS011;4324;42.012;24.872;2023-08-30T13:30:56;15.45;;;14.10;;
8572;SDS011;4324;42.012;24.872;2023-08-30T13:33:23;16.05;;;14.73;;
8572;SDS011;4324;42.012;24.872;2023-08-30T13:35:50;16.55;;;14.95;;
8572;SDS011;4324;42.012;24.872;2023-08-30T13:38:17;16.00;;;14.60;;
8572;SDS011;4324;42.012;24.872;2023-08-30T13:40:46;15.57;;;14.10;;
8572;SDS011;4324;42.012;24.872;2023-08-30T13:43:12;15.18;;;13.68;;
8572;SDS011;4324;42.012;24.872;2023-08-30T13:45:39;15.27;;;13.95;;
8572;SDS011;4324;42.012;24.872;2023-08-30T13:48:06;15.50;;;14.10;;
8572;SDS011;4324;42.012;24.872;2023-08-30T13:50:33;15.30;;;14.02;;
8572;SDS011;4324;42.012;24.872;2023-08-30T13:53:00;16.02;;;14.52;;
8572;SDS011;4324;42.012;24.872;2023-08-30T13:55:27;15.13;;;13.70;;
8572;SDS011;4324;42.012;24.872;2023-08-30T13:57:55;15.73;;;14.43;;
8572;SDS011;4324;42.012;24.872;2023-08-30T14:00:22;15.32;;;14.10;;
8572;SDS011;4324;42.012;24.872;2023-08-30T14:02:49;16.10;;;14.65;;
8572;SDS011;4324;42.012;24.872;2023-08-30T14:05:17;14.77;;;13.57;;
8572;SDS011;4324;42.012;24.872;2023-08-30T14:07:44;14.85;;;13.75;;
8572;SDS011;4324;42.012;24.872;2023-08-30T14:10:11;14.75;;;13.40;;
8572;SDS011;4324;42.012;24.872;2023-08-30T14:12:41;15.40;;;14.15;;
8572;SDS011;4324;42.012;24.872;2023-08-30T14:15:10;15.15;;;13.73;;
8572;SDS011;4324;42.012;24.872;2023-08-30T14:17:36;14.80;;;13.45;;
8572;SDS011;4324;42.012;24.872;2023-08-30T14:20:04;15.43;;;14.00;;
8572;SDS011;4324;42.012;24.872;2023-08-30T14:22:32;15.02;;;13.52;;
8572;SDS011;4324;42.012;24.872;2023-08-30T14:24:59;14.75;;;13.55;;
8572;SDS011;4324;42.012;24.872;2023-08-30T14:27:26;14.48;;;13.18;;
8572;SDS011;4324;42.012;24.872;2023-08-30T14:29:53;16.00;;;14.40;;
8572;SDS011;4324;42.012;24.872;2023-08-30T14:32:21;15.23;;;13.90;;
8572;SDS011;4324;42.012;24.872;2023-08-30T14:34:48;14.90;;;13.40;;
8572;SDS011;4324;42.012;24.872;2023-08-30T14:37:15;14.65;;;13.40;;